Airfield :
LOGIN :

Register | Disclaimer

   EN    FR    IT 

 










Legend :    VFR   Marginal VFR   IFR   Intensive IFR   Very Intensive IFR
Visi :
Ceiling :
>= 8 km
>= 3000ft
5 to 8 km
1000 to 3000 ft
1500m to 5 km
500 to 1000 ft
800 to 1500m
200 to 500 ft
< 800m
< 200 ft
Symbols :   Thunderstorms  Fog  Heavy snow  Heavy precipitations  Wind > 20 kt
SIGMETs :     Misc.  Thunderstorms  Icing  Turbulence  Mountain Waves  Volcanic Ashes







- Airport Elevation : 70 ft
- IATA code : LEI


LEAM - Almeria

CURRENT METAR :
  • 220600Z 33005KT 300V360 CAVOK 12/04 Q1026

EXPIRED METARs :
  • 220530Z 35004KT CAVOK 12/04 Q1026
  • 220500Z 33004KT CAVOK 12/04 Q1026
  • 220430Z 00000KT CAVOK 13/05 Q1026
  • 220400Z 00000KT CAVOK 14/07 Q1026
  • 220330Z AUTO VRB02KT 9999 NCD 13/06 Q1026

TAF TAF LEAM
Valid from the 22 at 03:00 until the 23 at 03:00 UTC


220200Z 2203/2303 VRB03KT CAVOK TX19/2213Z TN10/2207Z
PROB30
TEMPO 2214/2221 2000 BCFG BKN003
No reported NOTAMs for that airfield.



MET'MAP, your aeronautical weather chart ! - Copyright ORBIFLY December 2007 - Disclaimer

ORBIFLY MET'MAP TEAM :

Programming & Development : Alexandra Zaïnal
Concept & Development : Baudouin d'Aumeries
Co-Development & Prog : Marc-Olivier Méhu
Technical & hardware support : Manuel Goepfert

Contact : metmap@orbifly.com




SOURCES & CREDITS :

   NOAA